Tallant, Oklahoma
Current Conditions -  °F | °C
As of 12:53 PM on Sunday 23 Nov 2014 (Local Time) from KBVO Reporting Station
Overcast Overcast  
Wind Chill: 62°   Ceiling: 1700
Heat Index: 62°   Visibility: 10mi
Dew Point: 55°   Wind: 3mph
Humidity: 78%   Direction: 210°SSW
Pressure: 29.35"   Gusts: NA
Location:  36.5242°N, 96.1387°W
Report Text: KBVO 231853Z AUTO 21003KT 10SM BKN017 BKN029 OVC045 17/13 A2935 RMK AO2 SLP933 T01670128
Loading
Personal Weather Stations






























Interactive Weather Map New forecast layout! Learn more

10-Day Weather Forecast

Advertisements
Track Severe Weather on mobile